Time;durP1;ratioP1;P1;durP2;ratioP2;P2;SDS_P1;SDS_P2;PMS_P1;PMS_P2;Temp;Humidity;BMP_temperature;BMP_pressure;BME280_temperature;BME280_humidity;BME280_pressure;Samples;Min_cycle;Max_cycle;Signal;HPM_P1;HPM_P2
2021/03/08 00:01:22;;;;;;;48.55;20.83;;;;;;;;;;5017680;28;20791;-67
2021/03/08 00:03:48;;;;;;;54.90;24.55;;;;;;;;;;5017859;28;20059;-68
2021/03/08 00:06:14;;;;;;;48.42;22.13;;;;;;;;;;5019056;28;20033;-67
2021/03/08 00:08:40;;;;;;;48.00;22.23;;;;;;;;;;5016419;28;20017;-67
2021/03/08 00:11:06;;;;;;;55.40;22.85;;;;;;;;;;5019105;28;20045;-67
2021/03/08 00:13:32;;;;;;;55.97;24.48;;;;;;;;;;5017773;28;20038;-67
2021/03/08 00:15:58;;;;;;;49.33;21.55;;;;;;;;;;5010484;28;20086;-68
2021/03/08 00:18:25;;;;;;;54.95;22.90;;;;;;;;;;5008451;28;20041;-67
2021/03/08 00:20:52;;;;;;;55.78;23.20;;;;;;;;;;5009729;28;20510;-68
2021/03/08 00:23:18;;;;;;;53.53;23.30;;;;;;;;;;5015529;28;20018;-67
2021/03/08 00:25:44;;;;;;;46.78;21.40;;;;;;;;;;5014413;28;20389;-67
2021/03/08 00:28:10;;;;;;;48.58;21.27;;;;;;;;;;5015613;28;20643;-67
2021/03/08 00:30:36;;;;;;;50.28;22.27;;;;;;;;;;5010570;28;20547;-67
2021/03/08 00:33:02;;;;;;;48.22;22.00;;;;;;;;;;5017675;28;20029;-67
2021/03/08 00:35:28;;;;;;;47.22;21.42;;;;;;;;;;5022450;28;21691;-67
2021/03/08 00:37:54;;;;;;;45.45;21.05;;;;;;;;;;5024867;28;20025;-67
2021/03/08 00:40:22;;;;;;;50.75;22.45;;;;;;;;;;5024969;28;20502;-66
2021/03/08 00:42:48;;;;;;;42.80;20.88;;;;;;;;;;5015380;28;20041;-65
2021/03/08 00:45:21;;;;;;;48.22;21.38;;;;;;;;;;5009376;28;20429;-66
2021/03/08 00:47:47;;;;;;;47.78;21.70;;;;;;;;;;5018588;28;20030;-66
2021/03/08 00:50:18;;;;;;;44.13;21.63;;;;;;;;;;5032264;28;20033;-66
2021/03/08 00:52:44;;;;;;;49.78;21.40;;;;;;;;;;5018803;28;20029;-66
2021/03/08 00:55:14;;;;;;;46.95;21.05;;;;;;;;;;5014627;28;20030;-66
2021/03/08 00:57:40;;;;;;;48.47;23.35;;;;;;;;;;5024444;28;20041;-66
2021/03/08 01:00:07;;;;;;;42.65;19.73;;;;;;;;;;5032468;28;20487;-66
2021/03/08 01:02:33;;;;;;;48.88;21.15;;;;;;;;;;5028773;28;20097;-66
2021/03/08 01:04:59;;;;;;;48.38;21.70;;;;;;;;;;5030668;28;20091;-66
2021/03/08 01:07:26;;;;;;;47.63;21.75;;;;;;;;;;5032120;28;20022;-66
2021/03/08 01:09:52;;;;;;;55.17;22.77;;;;;;;;;;5030267;28;20049;-66
2021/03/08 01:12:18;;;;;;;51.55;22.75;;;;;;;;;;5020225;28;20033;-66
2021/03/08 01:14:44;;;;;;;43.97;20.20;;;;;;;;;;5017853;28;20025;-66
2021/03/08 01:17:10;;;;;;;49.75;22.08;;;;;;;;;;5017648;28;20053;-66
2021/03/08 01:19:36;;;;;;;54.03;22.40;;;;;;;;;;5018001;28;20034;-66
2021/03/08 01:22:02;;;;;;;49.08;23.20;;;;;;;;;;5019983;28;20026;-66
2021/03/08 01:24:28;;;;;;;49.67;23.65;;;;;;;;;;5023985;28;20025;-66
2021/03/08 01:26:54;;;;;;;51.70;22.30;;;;;;;;;;5026599;28;20033;-66
2021/03/08 01:29:20;;;;;;;48.38;22.10;;;;;;;;;;5019659;28;20140;-66
2021/03/08 01:31:46;;;;;;;51.33;22.67;;;;;;;;;;5018808;28;20025;-66
2021/03/08 01:34:13;;;;;;;48.30;21.42;;;;;;;;;;5022257;28;20038;-66
2021/03/08 01:36:39;;;;;;;47.08;20.83;;;;;;;;;;5022476;28;20030;-66
2021/03/08 01:39:05;;;;;;;51.13;21.70;;;;;;;;;;5020295;28;20037;-66
2021/03/08 01:41:32;;;;;;;47.53;21.42;;;;;;;;;;5024952;28;20026;-66
2021/03/08 01:43:58;;;;;;;47.95;21.60;;;;;;;;;;5039950;28;20071;-66
2021/03/08 01:46:24;;;;;;;45.50;21.95;;;;;;;;;;5020746;28;20060;-66
2021/03/08 01:48:52;;;;;;;50.35;21.50;;;;;;;;;;5019255;28;20503;-66
2021/03/08 01:51:18;;;;;;;46.60;20.80;;;;;;;;;;5031298;28;20124;-66
2021/03/08 01:53:44;;;;;;;53.00;23.85;;;;;;;;;;5036904;28;20059;-66
2021/03/08 01:56:10;;;;;;;54.88;23.80;;;;;;;;;;5028086;28;20384;-66
2021/03/08 01:58:37;;;;;;;54.88;24.00;;;;;;;;;;5019076;28;20030;-66
2021/03/08 02:01:03;;;;;;;54.85;23.67;;;;;;;;;;5033053;28;20399;-66
2021/03/08 02:03:29;;;;;;;55.25;24.75;;;;;;;;;;5025748;28;20065;-66
2021/03/08 02:05:55;;;;;;;55.72;22.88;;;;;;;;;;5023147;28;20026;-66
2021/03/08 02:08:23;;;;;;;58.63;23.85;;;;;;;;;;5021600;28;20022;-66
2021/03/08 02:10:49;;;;;;;54.45;23.60;;;;;;;;;;5038853;28;20057;-66
2021/03/08 02:13:25;;;;;;;50.60;23.65;;;;;;;;;;5028135;28;20439;-66
2021/03/08 02:15:55;;;;;;;54.72;24.35;;;;;;;;;;5022565;28;20080;-66
2021/03/08 02:18:33;;;;;;;51.30;23.30;;;;;;;;;;5030554;28;20063;-66
2021/03/08 02:21:17;;;;;;;46.65;22.23;;;;;;;;;;5026614;28;20141;-66
2021/03/08 02:23:52;;;;;;;49.70;22.50;;;;;;;;;;5014092;28;20030;-66
2021/03/08 02:26:21;;;;;;;45.13;21.67;;;;;;;;;;5019967;28;20030;-66
2021/03/08 02:28:47;;;;;;;52.40;23.23;;;;;;;;;;5018372;28;20030;-66
2021/03/08 02:31:13;;;;;;;57.13;25.25;;;;;;;;;;5029717;28;20104;-67
2021/03/08 02:33:41;;;;;;;48.22;20.95;;;;;;;;;;5018471;28;20034;-67
2021/03/08 02:36:08;;;;;;;54.53;24.60;;;;;;;;;;5016033;28;20025;-67
2021/03/08 02:38:36;;;;;;;48.35;22.40;;;;;;;;;;5023446;28;20455;-67
2021/03/08 02:41:07;;;;;;;48.13;23.00;;;;;;;;;;5023546;28;20045;-67
2021/03/08 02:43:35;;;;;;;50.20;22.85;;;;;;;;;;5026306;28;20539;-67
2021/03/08 02:46:04;;;;;;;52.72;24.80;;;;;;;;;;5016980;28;20040;-67
2021/03/08 02:48:32;;;;;;;52.97;22.48;;;;;;;;;;5026773;28;20475;-67
2021/03/08 02:50:58;;;;;;;50.40;23.15;;;;;;;;;;5030774;28;20048;-67
2021/03/08 02:53:26;;;;;;;49.17;23.00;;;;;;;;;;5025918;28;20060;-67
2021/03/08 02:56:02;;;;;;;49.65;22.55;;;;;;;;;;5020149;28;20091;-67
2021/03/08 02:58:32;;;;;;;47.15;22.27;;;;;;;;;;5022000;28;20022;-67
2021/03/08 03:00:59;;;;;;;52.15;23.35;;;;;;;;;;5024303;28;20041;-67
2021/03/08 03:03:26;;;;;;;53.10;23.88;;;;;;;;;;5022538;28;20021;-67
2021/03/08 03:05:55;;;;;;;51.40;22.52;;;;;;;;;;5027350;28;20082;-68
2021/03/08 03:08:21;;;;;;;51.17;23.20;;;;;;;;;;5041076;28;20037;-67
2021/03/08 03:10:47;;;;;;;54.38;24.83;;;;;;;;;;5029578;28;20046;-67
2021/03/08 03:13:14;;;;;;;53.67;24.15;;;;;;;;;;5017313;28;20037;-67
2021/03/08 03:15:41;;;;;;;55.97;23.42;;;;;;;;;;5024904;28;20025;-67
2021/03/08 03:18:08;;;;;;;56.35;24.33;;;;;;;;;;5029273;28;20124;-67
2021/03/08 03:20:35;;;;;;;57.13;25.75;;;;;;;;;;5013992;28;20033;-67
2021/03/08 03:23:02;;;;;;;46.10;22.80;;;;;;;;;;5017398;28;20045;-67
2021/03/08 03:25:29;;;;;;;53.80;23.05;;;;;;;;;;5014015;28;20021;-67
2021/03/08 03:27:55;;;;;;;50.85;23.35;;;;;;;;;;5021456;28;20025;-67
2021/03/08 03:30:22;;;;;;;57.70;24.02;;;;;;;;;;5019756;28;20021;-67
2021/03/08 03:32:48;;;;;;;51.00;23.02;;;;;;;;;;5013282;28;20037;-67
2021/03/08 03:35:15;;;;;;;57.95;25.00;;;;;;;;;;5026584;28;20040;-67
2021/03/08 03:37:42;;;;;;;54.70;24.90;;;;;;;;;;5023545;28;20033;-67
2021/03/08 03:40:09;;;;;;;57.15;26.48;;;;;;;;;;5018530;28;20022;-67
2021/03/08 03:42:35;;;;;;;54.92;26.00;;;;;;;;;;5023235;28;20499;-67
2021/03/08 03:45:04;;;;;;;59.35;25.50;;;;;;;;;;5032832;28;20028;-67
2021/03/08 03:47:30;;;;;;;61.60;25.88;;;;;;;;;;5022561;28;20036;-67
2021/03/08 03:49:58;;;;;;;66.55;26.02;;;;;;;;;;5024635;28;20044;-67
2021/03/08 03:52:24;;;;;;;57.40;25.75;;;;;;;;;;5021524;28;20035;-67
2021/03/08 03:54:50;;;;;;;58.80;24.30;;;;;;;;;;5026189;28;20067;-67
2021/03/08 03:57:17;;;;;;;56.92;25.80;;;;;;;;;;5024883;28;20095;-67
2021/03/08 03:59:52;;;;;;;54.58;25.70;;;;;;;;;;5029352;28;20029;-67
2021/03/08 04:02:20;;;;;;;59.40;28.05;;;;;;;;;;5027443;28;20406;-67
2021/03/08 04:04:51;;;;;;;60.70;25.38;;;;;;;;;;5028221;28;20427;-67
2021/03/08 04:07:18;;;;;;;62.10;27.02;;;;;;;;;;5020784;28;20029;-67
2021/03/08 04:09:46;;;;;;;57.97;26.67;;;;;;;;;;5024341;28;20033;-67
2021/03/08 04:12:12;;;;;;;59.45;25.83;;;;;;;;;;5022848;28;20045;-67
2021/03/08 04:14:39;;;;;;;59.70;27.48;;;;;;;;;;5024539;28;20034;-67
2021/03/08 04:17:06;;;;;;;62.50;28.30;;;;;;;;;;5026788;28;20071;-67
2021/03/08 04:19:33;;;;;;;63.60;27.52;;;;;;;;;;5016531;28;20033;-67
2021/03/08 04:22:04;;;;;;;70.90;30.55;;;;;;;;;;5027063;28;20025;-67
2021/03/08 04:24:31;;;;;;;71.95;28.90;;;;;;;;;;5024665;28;20467;-67
2021/03/08 04:26:58;;;;;;;67.07;28.60;;;;;;;;;;5023893;28;20021;-67
2021/03/08 04:29:24;;;;;;;65.47;29.63;;;;;;;;;;5012067;28;20044;-67
2021/03/08 04:31:50;;;;;;;64.90;30.98;;;;;;;;;;5022235;28;20030;-67
2021/03/08 04:34:17;;;;;;;63.33;29.98;;;;;;;;;;5026678;28;20034;-67
2021/03/08 04:36:44;;;;;;;68.03;28.98;;;;;;;;;;5024109;28;20488;-67
2021/03/08 04:39:11;;;;;;;80.97;29.42;;;;;;;;;;5026752;28;20041;-67
2021/03/08 04:41:37;;;;;;;63.85;30.63;;;;;;;;;;5025423;28;20040;-67
2021/03/08 04:44:04;;;;;;;73.05;31.30;;;;;;;;;;5020177;28;20029;-67
2021/03/08 04:46:31;;;;;;;68.20;31.17;;;;;;;;;;5016615;28;20022;-67
2021/03/08 04:48:59;;;;;;;68.72;29.63;;;;;;;;;;5022174;28;20036;-67
2021/03/08 04:51:25;;;;;;;72.22;30.60;;;;;;;;;;5014741;28;20496;-67
2021/03/08 04:53:52;;;;;;;72.97;31.55;;;;;;;;;;5034028;28;20041;-67
2021/03/08 04:56:19;;;;;;;68.97;30.63;;;;;;;;;;5027893;28;20025;-67
2021/03/08 04:58:45;;;;;;;68.75;30.15;;;;;;;;;;5012529;28;20034;-67
2021/03/08 05:01:12;;;;;;;67.45;31.90;;;;;;;;;;5025864;28;20476;-67
2021/03/08 05:03:39;;;;;;;60.13;29.08;;;;;;;;;;5028831;28;20029;-68
2021/03/08 05:06:07;;;;;;;72.72;33.67;;;;;;;;;;5016510;28;20075;-67
2021/03/08 05:08:35;;;;;;;62.17;29.70;;;;;;;;;;5027446;28;20098;-67
2021/03/08 05:11:01;;;;;;;77.35;31.48;;;;;;;;;;5026641;28;20144;-67
2021/03/08 05:13:30;;;;;;;69.35;31.63;;;;;;;;;;5026807;28;20036;-67
2021/03/08 05:15:56;;;;;;;63.33;29.58;;;;;;;;;;5026362;28;20021;-67
2021/03/08 05:18:24;;;;;;;70.10;31.02;;;;;;;;;;5027186;28;20033;-67
2021/03/08 05:20:50;;;;;;;63.30;28.20;;;;;;;;;;5021125;28;20021;-67
2021/03/08 05:23:17;;;;;;;62.65;29.52;;;;;;;;;;5023982;28;20033;-67
2021/03/08 05:25:44;;;;;;;64.03;30.67;;;;;;;;;;5011270;28;20045;-67
2021/03/08 05:28:11;;;;;;;63.83;29.42;;;;;;;;;;5013889;28;20060;-67
2021/03/08 05:30:37;;;;;;;64.20;29.58;;;;;;;;;;5020686;28;20602;-67
2021/03/08 05:33:17;;;;;;;61.55;29.45;;;;;;;;;;5022710;28;20025;-67
2021/03/08 05:35:43;;;;;;;65.25;29.45;;;;;;;;;;5023154;28;20457;-67
2021/03/08 05:38:09;;;;;;;64.60;27.67;;;;;;;;;;5020633;28;20052;-67
2021/03/08 05:40:41;;;;;;;66.95;29.48;;;;;;;;;;5018572;28;20033;-67
2021/03/08 05:43:08;;;;;;;70.43;29.30;;;;;;;;;;5010914;28;20033;-67
2021/03/08 05:45:39;;;;;;;64.35;28.15;;;;;;;;;;5016854;28;20041;-67
2021/03/08 05:48:37;;;;;;;55.72;26.95;;;;;;;;;;5024666;28;20072;-67
2021/03/08 05:51:22;;;;;;;60.75;27.27;;;;;;;;;;5016903;28;20060;-67
2021/03/08 05:53:48;;;;;;;52.88;25.70;;;;;;;;;;5022491;28;20083;-67
2021/03/08 05:56:32;;;;;;;62.00;26.85;;;;;;;;;;5023410;28;20090;-67
2021/03/08 05:59:27;;;;;;;61.33;27.48;;;;;;;;;;5022259;28;20030;-67
2021/03/08 06:01:53;;;;;;;57.38;26.48;;;;;;;;;;5033032;28;20113;-67
2021/03/08 06:04:38;;;;;;;58.38;26.05;;;;;;;;;;5022278;28;20415;-67
2021/03/08 06:07:10;;;;;;;60.38;25.13;;;;;;;;;;5022890;28;20032;-67
2021/03/08 06:09:36;;;;;;;;;;;;;;;;;;5026294;28;20057;-67
2021/03/08 06:12:06;;;;;;;55.42;26.75;;;;;;;;;;5022275;28;19956;-67
2021/03/08 06:14:35;;;;;;;55.85;26.55;;;;;;;;;;5023285;28;20112;-67
2021/03/08 06:17:01;;;;;;;58.47;25.15;;;;;;;;;;5020430;28;20072;-67
2021/03/08 06:19:30;;;;;;;51.00;23.02;;;;;;;;;;5022343;28;20029;-67
2021/03/08 06:21:57;;;;;;;52.17;24.15;;;;;;;;;;5025783;28;20029;-67
2021/03/08 06:24:24;;;;;;;53.80;24.52;;;;;;;;;;5015408;28;20033;-67
2021/03/08 06:26:50;;;;;;;55.47;24.02;;;;;;;;;;5028454;28;20033;-67
2021/03/08 06:29:16;;;;;;;56.25;23.50;;;;;;;;;;5031450;28;20032;-67
2021/03/08 06:31:43;;;;;;;51.95;22.98;;;;;;;;;;5021003;28;20026;-67
2021/03/08 06:34:09;;;;;;;57.95;24.33;;;;;;;;;;5027314;28;20032;-67
2021/03/08 06:36:37;;;;;;;50.83;23.55;;;;;;;;;;5034100;28;20042;-67
2021/03/08 06:39:03;;;;;;;58.70;24.35;;;;;;;;;;5026583;28;20500;-67
2021/03/08 06:41:29;;;;;;;54.42;23.10;;;;;;;;;;5021090;28;20029;-67
2021/03/08 06:43:55;;;;;;;51.53;23.30;;;;;;;;;;5039069;28;20127;-67
2021/03/08 06:46:21;;;;;;;53.97;25.73;;;;;;;;;;5024704;28;20026;-67
2021/03/08 06:48:47;;;;;;;52.40;22.80;;;;;;;;;;5026623;28;20017;-67
2021/03/08 06:51:14;;;;;;;54.67;25.02;;;;;;;;;;5030377;28;20041;-67
2021/03/08 06:53:41;;;;;;;56.17;25.23;;;;;;;;;;5019212;28;20166;-67
2021/03/08 06:56:21;;;;;;;54.63;24.67;;;;;;;;;;5020093;28;20034;-67
2021/03/08 06:59:03;;;;;;;53.28;24.52;;;;;;;;;;5024891;28;20025;-67
2021/03/08 07:01:30;;;;;;;52.78;24.40;;;;;;;;;;5019054;28;20076;-67
2021/03/08 07:03:57;;;;;;;82.47;28.92;;;;;;;;;;5029467;28;20029;-67
2021/03/08 07:06:23;;;;;;;58.35;24.83;;;;;;;;;;5025050;28;20010;-67
2021/03/08 07:08:50;;;;;;;60.97;24.67;;;;;;;;;;5020210;28;20087;-67
2021/03/08 07:11:17;;;;;;;57.58;24.95;;;;;;;;;;5027758;28;20124;-67
2021/03/08 07:13:43;;;;;;;52.95;23.52;;;;;;;;;;5026987;28;20021;-67
2021/03/08 07:16:09;;;;;;;55.33;23.17;;;;;;;;;;5028321;28;20443;-67
2021/03/08 07:18:36;;;;;;;51.25;23.65;;;;;;;;;;5022287;28;20033;-67
2021/03/08 07:21:15;;;;;;;50.35;24.85;;;;;;;;;;5025225;28;20022;-67
2021/03/08 07:23:42;;;;;;;49.58;22.88;;;;;;;;;;5028054;28;20026;-67
2021/03/08 07:26:08;;;;;;;52.15;23.08;;;;;;;;;;5024105;28;20029;-67
2021/03/08 07:28:34;;;;;;;51.38;21.13;;;;;;;;;;5023126;28;20103;-67
2021/03/08 07:31:00;;;;;;;46.20;20.10;;;;;;;;;;5023705;28;20026;-67
2021/03/08 07:33:27;;;;;;;47.97;20.23;;;;;;;;;;5018650;28;20438;-67
2021/03/08 07:35:53;;;;;;;41.03;19.70;;;;;;;;;;5019924;28;20156;-67
2021/03/08 07:38:33;;;;;;;49.45;21.27;;;;;;;;;;5019114;28;20115;-67
2021/03/08 07:41:09;;;;;;;41.63;18.77;;;;;;;;;;5022472;28;20104;-67
2021/03/08 07:43:36;;;;;;;40.58;17.98;;;;;;;;;;5022860;28;20018;-67
2021/03/08 07:46:02;;;;;;;43.85;18.67;;;;;;;;;;5023856;28;20514;-67
2021/03/08 07:48:28;;;;;;;40.13;17.58;;;;;;;;;;5021334;28;20033;-67
2021/03/08 07:50:54;;;;;;;40.58;18.98;;;;;;;;;;5023712;28;20029;-68
2021/03/08 07:53:23;;;;;;;44.10;18.10;;;;;;;;;;5022099;28;20511;-67
2021/03/08 07:55:50;;;;;;;38.65;17.30;;;;;;;;;;5025622;28;20033;-67
2021/03/08 07:58:17;;;;;;;35.95;16.38;;;;;;;;;;5025050;28;20032;-67
2021/03/08 08:00:43;;;;;;;36.72;15.98;;;;;;;;;;5018969;28;20021;-67
2021/03/08 08:03:09;;;;;;;31.88;15.55;;;;;;;;;;5028579;28;20033;-67
2021/03/08 08:05:35;;;;;;;38.10;18.00;;;;;;;;;;5023639;28;20026;-67
2021/03/08 08:08:02;;;;;;;38.00;17.40;;;;;;;;;;5027678;28;20065;-67
2021/03/08 08:10:28;;;;;;;40.72;16.52;;;;;;;;;;5015140;28;20038;-67
2021/03/08 08:12:59;;;;;;;40.97;17.63;;;;;;;;;;5019036;28;20041;-67
2021/03/08 08:15:26;;;;;;;34.80;17.00;;;;;;;;;;5020998;28;20065;-67
2021/03/08 08:17:54;;;;;;;32.97;15.38;;;;;;;;;;5016377;28;20025;-67
2021/03/08 08:20:21;;;;;;;34.65;16.48;;;;;;;;;;5019088;28;20034;-67
2021/03/08 08:22:53;;;;;;;30.60;15.02;;;;;;;;;;5021330;28;20025;-67
2021/03/08 08:25:20;;;;;;;39.78;15.82;;;;;;;;;;5019792;28;20025;-67
2021/03/08 08:27:47;;;;;;;38.28;15.60;;;;;;;;;;5019936;28;20435;-67
2021/03/08 08:30:14;;;;;;;38.58;16.67;;;;;;;;;;5021341;28;20033;-67
2021/03/08 08:32:47;;;;;;;37.22;16.45;;;;;;;;;;5023887;28;20036;-67
2021/03/08 08:35:17;;;;;;;29.33;13.80;;;;;;;;;;5021609;28;20038;-67
2021/03/08 08:37:43;;;;;;;36.90;17.13;;;;;;;;;;5022123;28;20041;-67
2021/03/08 08:40:09;;;;;;;34.92;16.25;;;;;;;;;;5021823;28;20021;-67
2021/03/08 08:42:36;;;;;;;34.60;16.05;;;;;;;;;;5028101;28;20573;-67
2021/03/08 08:45:22;;;;;;;39.25;17.00;;;;;;;;;;5018773;28;20080;-67
2021/03/08 08:48:03;;;;;;;32.25;18.02;;;;;;;;;;5014344;28;20034;-67
2021/03/08 08:50:42;;;;;;;37.42;18.10;;;;;;;;;;5018307;28;20054;-67
2021/03/08 08:53:08;;;;;;;37.30;18.13;;;;;;;;;;5021443;28;20037;-67
2021/03/08 08:55:37;;;;;;;36.58;18.40;;;;;;;;;;5006990;28;20063;-67
2021/03/08 08:58:22;;;;;;;38.35;18.02;;;;;;;;;;5022981;28;20041;-67
2021/03/08 09:01:13;;;;;;;40.20;18.60;;;;;;;;;;5020919;28;20022;-68
2021/03/08 09:03:59;;;;;;;38.87;19.40;;;;;;;;;;5011754;28;20447;-68
2021/03/08 09:06:38;;;;;;;32.90;15.73;;;;;;;;;;5015327;28;20026;-67
2021/03/08 09:09:04;;;;;;;33.42;15.40;;;;;;;;;;5020348;28;20038;-67
2021/03/08 09:11:49;;;;;;;31.70;14.75;;;;;;;;;;5014628;28;20064;-67
2021/03/08 09:14:21;;;;;;;30.25;13.57;;;;;;;;;;5022869;28;20065;-66
2021/03/08 09:16:49;;;;;;;33.75;16.02;;;;;;;;;;5024379;28;20476;-67
2021/03/08 09:19:21;;;;;;;39.85;15.70;;;;;;;;;;5024264;28;20060;-68
2021/03/08 09:21:48;;;;;;;31.92;15.40;;;;;;;;;;5023804;28;20021;-67
2021/03/08 09:24:29;;;;;;;33.70;15.40;;;;;;;;;;5023813;28;20045;-67
2021/03/08 09:26:56;;;;;;;34.45;16.45;;;;;;;;;;5024738;28;20021;-67
2021/03/08 09:29:25;;;;;;;31.35;14.45;;;;;;;;;;5021117;28;20030;-67
2021/03/08 09:31:55;;;;;;;35.60;16.00;;;;;;;;;;5022190;28;20033;-67
2021/03/08 09:34:21;;;;;;;34.65;16.58;;;;;;;;;;5022410;28;20087;-67
2021/03/08 09:36:47;;;;;;;29.83;14.85;;;;;;;;;;5025531;28;20103;-67
2021/03/08 09:39:15;;;;;;;36.50;16.75;;;;;;;;;;5023599;28;20124;-67
2021/03/08 09:41:41;;;;;;;37.38;15.68;;;;;;;;;;5022999;28;20030;-67
2021/03/08 09:44:07;;;;;;;37.17;16.90;;;;;;;;;;5023302;28;20083;-67
2021/03/08 09:46:33;;;;;;;38.05;16.98;;;;;;;;;;5025180;28;20025;-67
2021/03/08 09:49:04;;;;;;;31.42;16.50;;;;;;;;;;5018344;28;20033;-68
2021/03/08 09:51:31;;;;;;;35.37;17.93;;;;;;;;;;5024293;28;20411;-67
2021/03/08 09:54:01;;;;;;;42.17;18.27;;;;;;;;;;5018076;28;20022;-67
2021/03/08 09:56:27;;;;;;;39.45;18.35;;;;;;;;;;5025552;28;20037;-67
2021/03/08 09:59:03;;;;;;;36.30;17.65;;;;;;;;;;5020009;28;20033;-67
2021/03/08 10:01:29;;;;;;;36.25;17.45;;;;;;;;;;5020366;28;20034;-67
2021/03/08 10:03:55;;;;;;;38.33;17.95;;;;;;;;;;5025763;28;20034;-67
2021/03/08 10:06:22;;;;;;;30.90;14.30;;;;;;;;;;5023522;28;20036;-66
2021/03/08 10:08:48;;;;;;;40.20;17.90;;;;;;;;;;5022595;28;20030;-67
2021/03/08 10:11:25;;;;;;;35.85;18.33;;;;;;;;;;5023633;28;20080;-67
2021/03/08 10:13:51;;;;;;;35.88;16.17;;;;;;;;;;5025229;28;20026;-67
2021/03/08 10:16:21;;;;;;;36.97;16.73;;;;;;;;;;5024003;28;20025;-67
2021/03/08 10:18:47;;;;;;;38.78;17.98;;;;;;;;;;5019226;28;20033;-68
2021/03/08 10:21:13;;;;;;;35.45;18.55;;;;;;;;;;5019859;28;20068;-67
2021/03/08 10:23:39;;;;;;;34.78;16.45;;;;;;;;;;5019260;28;20041;-67
2021/03/08 10:26:06;;;;;;;37.20;18.08;;;;;;;;;;5026108;28;20025;-68
2021/03/08 10:28:52;;;;;;;36.85;18.42;;;;;;;;;;5019919;28;20468;-68
2021/03/08 10:31:21;;;;;;;36.95;18.75;;;;;;;;;;5023304;28;20079;-67
2021/03/08 10:33:55;;;;;;;34.45;18.67;;;;;;;;;;5026077;28;20021;-68
2021/03/08 10:36:22;;;;;;;28.90;12.02;;;;;;;;;;5027338;28;20029;-68
2021/03/08 10:38:58;;;;;;;40.22;17.17;;;;;;;;;;5025083;28;20018;-67
2021/03/08 10:41:25;;;;;;;36.88;18.40;;;;;;;;;;5027472;28;20047;-67
2021/03/08 10:43:52;;;;;;;37.40;16.67;;;;;;;;;;5021619;28;20021;-67
2021/03/08 10:46:18;;;;;;;37.03;15.25;;;;;;;;;;5017434;28;20076;-68
2021/03/08 10:48:54;;;;;;;38.25;18.38;;;;;;;;;;5023517;28;20692;-68
2021/03/08 10:51:21;;;;;;;33.45;14.55;;;;;;;;;;5019969;28;20053;-67
2021/03/08 10:53:56;;;;;;;38.67;18.65;;;;;;;;;;5023635;28;20024;-68
2021/03/08 10:56:23;;;;;;;38.10;20.83;;;;;;;;;;5016494;28;20121;-68
2021/03/08 10:58:49;;;;;;;39.65;15.75;;;;;;;;;;5023103;28;20034;-67
2021/03/08 11:01:15;;;;;;;38.28;18.52;;;;;;;;;;5021865;28;20491;-68
2021/03/08 11:03:41;;;;;;;39.13;17.95;;;;;;;;;;5022727;28;20247;-68
2021/03/08 11:06:09;;;;;;;45.47;20.25;;;;;;;;;;5026472;28;20553;-68
2021/03/08 11:08:38;;;;;;;40.85;17.10;;;;;;;;;;5022251;28;20227;-68
2021/03/08 11:11:14;;;;;;;40.67;20.48;;;;;;;;;;5028565;28;20081;-68
2021/03/08 11:13:40;;;;;;;40.38;19.42;;;;;;;;;;5027462;28;20025;-68
2021/03/08 11:16:07;;;;;;;38.65;20.40;;;;;;;;;;5019374;28;20041;-67
2021/03/08 11:18:34;;;;;;;45.03;19.33;;;;;;;;;;5020245;28;20033;-68
2021/03/08 11:21:19;;;;;;;36.03;17.40;;;;;;;;;;5019278;28;20104;-68
2021/03/08 11:23:45;;;;;;;40.70;17.95;;;;;;;;;;5028648;28;20167;-68
2021/03/08 11:26:12;;;;;;;39.10;19.95;;;;;;;;;;5025454;28;20091;-68
2021/03/08 11:28:39;;;;;;;37.90;17.95;;;;;;;;;;5023015;28;20309;-68
2021/03/08 11:31:06;;;;;;;40.35;19.13;;;;;;;;;;5019165;28;20565;-68
2021/03/08 11:33:36;;;;;;;39.58;18.98;;;;;;;;;;5023450;28;20036;-68
2021/03/08 11:36:02;;;;;;;35.33;17.58;;;;;;;;;;5024673;28;20071;-68
2021/03/08 11:38:28;;;;;;;41.83;18.70;;;;;;;;;;5015067;28;20065;-68
2021/03/08 11:40:55;;;;;;;44.85;20.23;;;;;;;;;;5023696;28;20026;-68
2021/03/08 11:43:22;;;;;;;36.08;16.15;;;;;;;;;;5021281;28;20500;-68
2021/03/08 11:45:49;;;;;;;38.90;19.70;;;;;;;;;;5012157;28;20057;-68
2021/03/08 11:48:15;;;;;;;42.00;18.33;;;;;;;;;;5020941;28;20026;-68
2021/03/08 11:50:41;;;;;;;40.15;20.75;;;;;;;;;;5019854;28;20204;-68
2021/03/08 11:53:07;;;;;;;39.50;20.00;;;;;;;;;;5020027;28;20032;-68
2021/03/08 11:55:33;;;;;;;38.80;19.65;;;;;;;;;;5023730;28;20559;-68
2021/03/08 11:57:59;;;;;;;41.17;20.27;;;;;;;;;;5019245;28;20127;-67
2021/03/08 12:00:27;;;;;;;43.47;17.42;;;;;;;;;;5022948;28;20126;-67
2021/03/08 12:02:53;;;;;;;41.72;19.25;;;;;;;;;;5023387;28;20029;-68
2021/03/08 12:05:19;;;;;;;41.22;20.50;;;;;;;;;;5027599;28;20038;-68
2021/03/08 12:07:45;;;;;;;44.97;21.08;;;;;;;;;;5023677;28;20009;-67
2021/03/08 12:10:12;;;;;;;41.78;18.60;;;;;;;;;;5018445;28;20084;-68
2021/03/08 12:12:38;;;;;;;44.15;18.77;;;;;;;;;;5021120;28;20058;-67
2021/03/08 12:15:06;;;;;;;41.85;20.85;;;;;;;;;;5023278;28;20097;-68
2021/03/08 12:17:32;;;;;;;42.03;20.42;;;;;;;;;;5021344;28;20172;-68
2021/03/08 12:19:58;;;;;;;45.80;22.50;;;;;;;;;;5015429;28;20053;-68
2021/03/08 12:22:25;;;;;;;48.40;19.67;;;;;;;;;;5020425;28;20484;-68
2021/03/08 12:24:51;;;;;;;40.78;16.33;;;;;;;;;;5019262;28;20045;-67
2021/03/08 12:27:17;;;;;;;45.45;19.98;;;;;;;;;;5026079;28;20491;-68
2021/03/08 12:29:43;;;;;;;46.60;20.13;;;;;;;;;;5018012;28;20049;-68
2021/03/08 12:32:09;;;;;;;45.90;20.67;;;;;;;;;;5022325;28;20025;-68
2021/03/08 12:34:35;;;;;;;40.90;22.23;;;;;;;;;;5021213;28;20124;-67
2021/03/08 12:37:02;;;;;;;40.28;19.20;;;;;;;;;;5021204;28;20026;-68
2021/03/08 12:39:28;;;;;;;46.53;18.75;;;;;;;;;;5018443;28;20510;-67
2021/03/08 12:41:54;;;;;;;37.22;18.13;;;;;;;;;;5021203;28;20041;-68
2021/03/08 12:44:20;;;;;;;37.08;15.00;;;;;;;;;;5017899;28;20081;-68
2021/03/08 12:46:46;;;;;;;34.85;14.75;;;;;;;;;;5022772;28;20132;-68
2021/03/08 12:49:13;;;;;;;37.25;18.02;;;;;;;;;;5020379;28;20128;-68
2021/03/08 12:51:39;;;;;;;24.20;11.23;;;;;;;;;;5023797;28;20025;-68
2021/03/08 12:54:05;;;;;;;44.92;21.40;;;;;;;;;;5025231;28;20025;-68
2021/03/08 12:56:31;;;;;;;46.40;19.50;;;;;;;;;;5023017;28;20033;-68
2021/03/08 12:58:57;;;;;;;53.35;23.40;;;;;;;;;;5022656;28;20317;-68
2021/03/08 13:01:23;;;;;;;44.90;22.33;;;;;;;;;;5026709;28;20232;-68
2021/03/08 13:03:49;;;;;;;40.95;18.63;;;;;;;;;;5023879;28;20077;-68
2021/03/08 13:06:17;;;;;;;49.17;22.15;;;;;;;;;;5023824;28;20114;-68
2021/03/08 13:08:43;;;;;;;41.28;19.20;;;;;;;;;;5019028;28;20033;-68
2021/03/08 13:11:09;;;;;;;41.58;19.52;;;;;;;;;;5027174;28;20235;-68
2021/03/08 13:13:35;;;;;;;43.20;18.90;;;;;;;;;;5022952;28;20124;-68
2021/03/08 13:16:01;;;;;;;37.33;18.23;;;;;;;;;;5021073;28;20476;-68
2021/03/08 13:18:27;;;;;;;35.78;16.95;;;;;;;;;;5023135;28;20029;-68
2021/03/08 13:20:53;;;;;;;39.17;18.13;;;;;;;;;;5024118;28;20459;-68
2021/03/08 13:23:19;;;;;;;37.88;18.50;;;;;;;;;;5027872;28;20419;-68
2021/03/08 13:25:45;;;;;;;38.20;20.27;;;;;;;;;;5033929;28;20074;-68
2021/03/08 13:28:11;;;;;;;36.92;17.35;;;;;;;;;;5030732;28;20041;-67
2021/03/08 13:30:39;;;;;;;40.25;15.40;;;;;;;;;;5026889;28;20020;-68
2021/03/08 13:33:05;;;;;;;35.95;17.35;;;;;;;;;;5025778;28;20052;-68
2021/03/08 13:35:31;;;;;;;39.50;20.10;;;;;;;;;;5027811;28;20049;-68
2021/03/08 13:37:57;;;;;;;40.80;17.40;;;;;;;;;;5029109;28;20037;-67
2021/03/08 13:40:23;;;;;;;36.65;17.50;;;;;;;;;;5027945;28;20017;-68
2021/03/08 13:42:49;;;;;;;38.95;19.70;;;;;;;;;;5032143;28;20013;-68
2021/03/08 13:45:15;;;;;;;40.22;20.55;;;;;;;;;;5032838;28;20025;-69
2021/03/08 13:47:41;;;;;;;38.35;19.35;;;;;;;;;;5024225;28;20049;-68
2021/03/08 13:50:08;;;;;;;40.50;17.02;;;;;;;;;;5019999;28;20026;-68
2021/03/08 13:52:35;;;;;;;41.25;21.30;;;;;;;;;;5025603;28;20025;-68
2021/03/08 13:55:01;;;;;;;38.58;19.30;;;;;;;;;;5022026;28;20156;-68
2021/03/08 13:57:27;;;;;;;41.13;20.17;;;;;;;;;;5024739;28;20287;-68
2021/03/08 13:59:53;;;;;;;35.13;15.80;;;;;;;;;;5022324;28;20223;-67
2021/03/08 14:02:19;;;;;;;39.00;19.15;;;;;;;;;;5022766;28;20071;-67
2021/03/08 14:04:45;;;;;;;43.40;23.85;;;;;;;;;;5020801;28;20018;-68
2021/03/08 14:07:11;;;;;;;47.58;22.17;;;;;;;;;;5026038;28;20029;-68
2021/03/08 14:09:38;;;;;;;47.58;21.40;;;;;;;;;;5019860;28;20053;-68
2021/03/08 14:12:07;;;;;;;49.28;23.25;;;;;;;;;;5019706;28;20112;-68
2021/03/08 14:14:33;;;;;;;50.08;23.15;;;;;;;;;;5021766;28;20026;-68
2021/03/08 14:17:00;;;;;;;43.58;20.52;;;;;;;;;;5021011;28;20028;-68
2021/03/08 14:19:26;;;;;;;44.22;21.17;;;;;;;;;;5016163;28;20044;-68
2021/03/08 14:21:52;;;;;;;48.88;20.48;;;;;;;;;;5022238;28;20032;-67
2021/03/08 14:24:18;;;;;;;41.90;20.50;;;;;;;;;;5021482;28;20108;-68